Aviation Digital Data Service (ADDS)

Output produced by METARs form (2225 UTC 23 March 2019)
found at http://www.aviationweather.gov/metar/data/
 
METAR text: DAAG 232200Z 06003KT 360V140 7000 3000NE BR FEW020 11/10 Q1024
Conditions at: DAAG (DAR-EL-BEIDA/HOU, DZ) observed 2200 UTC 23 March 2019
Temperature: 11.0°C (52°F)
Dewpoint: 10.0°C (50°F) [RH = 94%]
Pressure (altimeter): 30.24 inches Hg (1024.0 mb)
Winds: from the ENE (60 degrees) at 3 MPH (3 knots; 1.5 m/s)
Visibility: 4 miles ( 7 km)
Ceiling: at least 12,000 feet AGL
Clouds: few clouds at 2000 feet AGL
Weather: BR  (mist)

METAR text: DAAG 232130Z 07003KT 8000 FEW020 12/11 Q1024
Conditions at: DAAG (DAR-EL-BEIDA/HOU, DZ) observed 2130 UTC 23 March 2019
Temperature: 12.0°C (54°F)
Dewpoint: 11.0°C (52°F) [RH = 94%]
Pressure (altimeter): 30.24 inches Hg (1024.0 mb)
Winds: from the ENE (70 degrees) at 3 MPH (3 knots; 1.5 m/s)
Visibility: 5 miles ( 8 km)
Ceiling: at least 12,000 feet AGL
Clouds: few clouds at 2000 feet AGL
Weather: no significant weather observed at this time

METAR text: DAAG 232100Z 00000KT 8000 FEW020 12/11 Q1025
Conditions at: DAAG (DAR-EL-BEIDA/HOU, DZ) observed 2100 UTC 23 March 2019
Temperature: 12.0°C (54°F)
Dewpoint: 11.0°C (52°F) [RH = 94%]
Pressure (altimeter): 30.27 inches Hg (1025.0 mb)
Winds: calm
Visibility: 5 miles ( 8 km)
Ceiling: at least 12,000 feet AGL
Clouds: few clouds at 2000 feet AGL
Weather: no significant weather observed at this time

METAR text: DAAG 232030Z 00000KT 8000 FEW020 12/11 Q1025
Conditions at: DAAG (DAR-EL-BEIDA/HOU, DZ) observed 2030 UTC 23 March 2019
Temperature: 12.0°C (54°F)
Dewpoint: 11.0°C (52°F) [RH = 94%]
Pressure (altimeter): 30.27 inches Hg (1025.0 mb)
Winds: calm
Visibility: 5 miles ( 8 km)
Ceiling: at least 12,000 feet AGL
Clouds: few clouds at 2000 feet AGL
Weather: no significant weather observed at this time

METAR text: DAAG 232000Z 21003KT 9999 FEW020 13/11 Q1024
Conditions at: DAAG (DAR-EL-BEIDA/HOU, DZ) observed 2000 UTC 23 March 2019
Temperature: 13.0°C (55°F)
Dewpoint: 11.0°C (52°F) [RH = 88%]
Pressure (altimeter): 30.24 inches Hg (1024.0 mb)
Winds: from the SSW (210 degrees) at 3 MPH (3 knots; 1.5 m/s)
Visibility: 6 or more miles (10+ km)
Ceiling: at least 12,000 feet AGL
Clouds: few clouds at 2000 feet AGL
Weather: no significant weather observed at this time

METAR text: DAAG 231930Z 09004KT 050V130 9999 FEW020 14/12 Q1024
Conditions at: DAAG (DAR-EL-BEIDA/HOU, DZ) observed 1930 UTC 23 March 2019
Temperature: 14.0°C (57°F)
Dewpoint: 12.0°C (54°F) [RH = 88%]
Pressure (altimeter): 30.24 inches Hg (1024.0 mb)
Winds: from the E (90 degrees) at 5 MPH (4 knots; 2.1 m/s)
Visibility: 6 or more miles (10+ km)
Ceiling: at least 12,000 feet AGL
Clouds: few clouds at 2000 feet AGL
Weather: no significant weather observed at this time

METAR text: DAAG 231900Z 08005KT 040V100 9999 FEW020 SCT090 14/12 Q1024
Conditions at: DAAG (DAR-EL-BEIDA/HOU, DZ) observed 1900 UTC 23 March 2019
Temperature: 14.0°C (57°F)
Dewpoint: 12.0°C (54°F) [RH = 88%]
Pressure (altimeter): 30.24 inches Hg (1024.0 mb)
Winds: from the E (80 degrees) at 6 MPH (5 knots; 2.6 m/s)
Visibility: 6 or more miles (10+ km)
Ceiling: at least 12,000 feet AGL
Clouds: few clouds at 2000 feet AGL
scattered clouds at 9000 feet AGL
Weather: no significant weather observed at this time

METAR text: DAAG 231830Z 08005KT 020V090 9999 FEW020 14/12 Q1024
Conditions at: DAAG (DAR-EL-BEIDA/HOU, DZ) observed 1830 UTC 23 March 2019
Temperature: 14.0°C (57°F)
Dewpoint: 12.0°C (54°F) [RH = 88%]
Pressure (altimeter): 30.24 inches Hg (1024.0 mb)
Winds: from the E (80 degrees) at 6 MPH (5 knots; 2.6 m/s)
Visibility: 6 or more miles (10+ km)
Ceiling: at least 12,000 feet AGL
Clouds: few clouds at 2000 feet AGL
Weather: no significant weather observed at this time

METAR text: DAAG 231800Z 08006KT 9999 FEW020 SCT086 15/12 Q1024
Conditions at: DAAG (DAR-EL-BEIDA/HOU, DZ) observed 1800 UTC 23 March 2019
Temperature: 15.0°C (59°F)
Dewpoint: 12.0°C (54°F) [RH = 82%]
Pressure (altimeter): 30.24 inches Hg (1024.0 mb)
Winds: from the E (80 degrees) at 7 MPH (6 knots; 3.1 m/s)
Visibility: 6 or more miles (10+ km)
Ceiling: at least 12,000 feet AGL
Clouds: few clouds at 2000 feet AGL
scattered clouds at 8600 feet AGL
Weather: no significant weather observed at this time

METAR text: DAAG 231730Z 08006KT 9999 FEW020TCU SCT086 16/12 Q1023
Conditions at: DAAG (DAR-EL-BEIDA/HOU, DZ) observed 1730 UTC 23 March 2019
Temperature: 16.0°C (61°F)
Dewpoint: 12.0°C (54°F) [RH = 77%]
Pressure (altimeter): 30.21 inches Hg (1023.0 mb)
Winds: from the E (80 degrees) at 7 MPH (6 knots; 3.1 m/s)
Visibility: 6 or more miles (10+ km)
Ceiling: at least 12,000 feet AGL
Clouds: few clouds at 2000 feet AGL
scattered clouds at 8600 feet AGL
Weather: no significant weather observed at this time

METAR text: DAAG 231700Z 08006KT 9999 FEW020TCU SCT086 16/13 Q1023
Conditions at: DAAG (DAR-EL-BEIDA/HOU, DZ) observed 1700 UTC 23 March 2019
Temperature: 16.0°C (61°F)
Dewpoint: 13.0°C (55°F) [RH = 82%]
Pressure (altimeter): 30.21 inches Hg (1023.0 mb)
Winds: from the E (80 degrees) at 7 MPH (6 knots; 3.1 m/s)
Visibility: 6 or more miles (10+ km)
Ceiling: at least 12,000 feet AGL
Clouds: few clouds at 2000 feet AGL
scattered clouds at 8600 feet AGL
Weather: no significant weather observed at this time

METAR text: DAAG 231630Z 07007KT 030V100 9999 FEW020TCU SCT086 17/13 Q1023
Conditions at: DAAG (DAR-EL-BEIDA/HOU, DZ) observed 1630 UTC 23 March 2019
Temperature: 17.0°C (63°F)
Dewpoint: 13.0°C (55°F) [RH = 77%]
Pressure (altimeter): 30.21 inches Hg (1023.0 mb)
Winds: from the ENE (70 degrees) at 8 MPH (7 knots; 3.6 m/s)
Visibility: 6 or more miles (10+ km)
Ceiling: at least 12,000 feet AGL
Clouds: few clouds at 2000 feet AGL
scattered clouds at 8600 feet AGL
Weather: no significant weather observed at this time

METAR text: DAAG 231600Z 07008KT 9999 FEW020TCU 17/13 Q1023
Conditions at: DAAG (DAR-EL-BEIDA/HOU, DZ) observed 1600 UTC 23 March 2019
Temperature: 17.0°C (63°F)
Dewpoint: 13.0°C (55°F) [RH = 77%]
Pressure (altimeter): 30.21 inches Hg (1023.0 mb)
Winds: from the ENE (70 degrees) at 9 MPH (8 knots; 4.1 m/s)
Visibility: 6 or more miles (10+ km)
Ceiling: at least 12,000 feet AGL
Clouds: few clouds at 2000 feet AGL
Weather: no significant weather observed at this time

METAR text: DAAG 231530Z 05007KT 020V080 9999 SCT020TCU 17/13 Q1023
Conditions at: DAAG (DAR-EL-BEIDA/HOU, DZ) observed 1530 UTC 23 March 2019
Temperature: 17.0°C (63°F)
Dewpoint: 13.0°C (55°F) [RH = 77%]
Pressure (altimeter): 30.21 inches Hg (1023.0 mb)
Winds: from the NE (50 degrees) at 8 MPH (7 knots; 3.6 m/s)
Visibility: 6 or more miles (10+ km)
Ceiling: at least 12,000 feet AGL
Clouds: scattered clouds at 2000 feet AGL
Weather: no significant weather observed at this time

METAR text: DAAG 231500Z 05009KT 9999 SCT020TCU 17/13 Q1023
Conditions at: DAAG (DAR-EL-BEIDA/HOU, DZ) observed 1500 UTC 23 March 2019
Temperature: 17.0°C (63°F)
Dewpoint: 13.0°C (55°F) [RH = 77%]
Pressure (altimeter): 30.21 inches Hg (1023.0 mb)
Winds: from the NE (50 degrees) at 10 MPH (9 knots; 4.6 m/s)
Visibility: 6 or more miles (10+ km)
Ceiling: at least 12,000 feet AGL
Clouds: scattered clouds at 2000 feet AGL
Weather: no significant weather observed at this time

METAR text: DAAG 231430Z 05005KT 360V100 9999 SCT020TCU 18/13 Q1023
Conditions at: DAAG (DAR-EL-BEIDA/HOU, DZ) observed 1430 UTC 23 March 2019
Temperature: 18.0°C (64°F)
Dewpoint: 13.0°C (55°F) [RH = 73%]
Pressure (altimeter): 30.21 inches Hg (1023.0 mb)
Winds: from the NE (50 degrees) at 6 MPH (5 knots; 2.6 m/s)
Visibility: 6 or more miles (10+ km)
Ceiling: at least 12,000 feet AGL
Clouds: scattered clouds at 2000 feet AGL
Weather: no significant weather observed at this time

METAR text: DAAG 231400Z 06006KT 030V110 9999 SCT020TCU 18/12 Q1024
Conditions at: DAAG (DAR-EL-BEIDA/HOU, DZ) observed 1400 UTC 23 March 2019
Temperature: 18.0°C (64°F)
Dewpoint: 12.0°C (54°F) [RH = 68%]
Pressure (altimeter): 30.24 inches Hg (1024.0 mb)
Winds: from the ENE (60 degrees) at 7 MPH (6 knots; 3.1 m/s)
Visibility: 6 or more miles (10+ km)
Ceiling: at least 12,000 feet AGL
Clouds: scattered clouds at 2000 feet AGL
Weather: no significant weather observed at this time

METAR text: DAAG 231330Z 04007KT 010V070 9999 FEW020TCU SCT040 17/12 Q1024
Conditions at: DAAG (DAR-EL-BEIDA/HOU, DZ) observed 1330 UTC 23 March 2019
Temperature: 17.0°C (63°F)
Dewpoint: 12.0°C (54°F) [RH = 72%]
Pressure (altimeter): 30.24 inches Hg (1024.0 mb)
Winds: from the NE (40 degrees) at 8 MPH (7 knots; 3.6 m/s)
Visibility: 6 or more miles (10+ km)
Ceiling: at least 12,000 feet AGL
Clouds: few clouds at 2000 feet AGL
scattered clouds at 4000 feet AGL
Weather: no significant weather observed at this time

METAR text: DAAG 231300Z VRB02KT 9999 FEW020TCU SCT040 17/12 Q1024
Conditions at: DAAG (DAR-EL-BEIDA/HOU, DZ) observed 1300 UTC 23 March 2019
Temperature: 17.0°C (63°F)
Dewpoint: 12.0°C (54°F) [RH = 72%]
Pressure (altimeter): 30.24 inches Hg (1024.0 mb)
Winds: variable direction winds at 2 MPH (2 knots; 1.0 m/s)
Visibility: 6 or more miles (10+ km)
Ceiling: at least 12,000 feet AGL
Clouds: few clouds at 2000 feet AGL
scattered clouds at 4000 feet AGL
Weather: no significant weather observed at this time

METAR text: DAAG 231230Z 00000KT 9999 FEW020TCU SCT040 16/12 Q1024
Conditions at: DAAG (DAR-EL-BEIDA/HOU, DZ) observed 1230 UTC 23 March 2019
Temperature: 16.0°C (61°F)
Dewpoint: 12.0°C (54°F) [RH = 77%]
Pressure (altimeter): 30.24 inches Hg (1024.0 mb)
Winds: calm
Visibility: 6 or more miles (10+ km)
Ceiling: at least 12,000 feet AGL
Clouds: few clouds at 2000 feet AGL
scattered clouds at 4000 feet AGL
Weather: no significant weather observed at this time

METAR text: DAAG 231200Z 00000KT 9999 FEW020TCU SCT040 BKN080 15/12 Q1025
Conditions at: DAAG (DAR-EL-BEIDA/HOU, DZ) observed 1200 UTC 23 March 2019
Temperature: 15.0°C (59°F)
Dewpoint: 12.0°C (54°F) [RH = 82%]
Pressure (altimeter): 30.27 inches Hg (1025.0 mb)
Winds: calm
Visibility: 6 or more miles (10+ km)
Ceiling: 8000 feet AGL
Clouds: few clouds at 2000 feet AGL
scattered clouds at 4000 feet AGL
broken clouds at 8000 feet AGL
Weather: no significant weather observed at this time

METAR text: DAAG 231130Z 00000KT 9999 FEW020TCU SCT036 BKN080 14/12 Q1024
Conditions at: DAAG (DAR-EL-BEIDA/HOU, DZ) observed 1130 UTC 23 March 2019
Temperature: 14.0°C (57°F)
Dewpoint: 12.0°C (54°F) [RH = 88%]
Pressure (altimeter): 30.24 inches Hg (1024.0 mb)
Winds: calm
Visibility: 6 or more miles (10+ km)
Ceiling: 8000 feet AGL
Clouds: few clouds at 2000 feet AGL
scattered clouds at 3600 feet AGL
broken clouds at 8000 feet AGL
Weather: no significant weather observed at this time

METAR text: DAAG 231100Z 00000KT 9999 FEW020TCU SCT036 BKN080 15/12 Q1025
Conditions at: DAAG (DAR-EL-BEIDA/HOU, DZ) observed 1100 UTC 23 March 2019
Temperature: 15.0°C (59°F)
Dewpoint: 12.0°C (54°F) [RH = 82%]
Pressure (altimeter): 30.27 inches Hg (1025.0 mb)
Winds: calm
Visibility: 6 or more miles (10+ km)
Ceiling: 8000 feet AGL
Clouds: few clouds at 2000 feet AGL
scattered clouds at 3600 feet AGL
broken clouds at 8000 feet AGL
Weather: no significant weather observed at this time

METAR text: DAAG 231030Z 00000KT 9999 FEW020TCU SCT036 BKN080 14/12 Q1025
Conditions at: DAAG (DAR-EL-BEIDA/HOU, DZ) observed 1030 UTC 23 March 2019
Temperature: 14.0°C (57°F)
Dewpoint: 12.0°C (54°F) [RH = 88%]
Pressure (altimeter): 30.27 inches Hg (1025.0 mb)
Winds: calm
Visibility: 6 or more miles (10+ km)
Ceiling: 8000 feet AGL
Clouds: few clouds at 2000 feet AGL
scattered clouds at 3600 feet AGL
broken clouds at 8000 feet AGL
Weather: no significant weather observed at this time

METAR text: DAAG 231000Z VRB02KT 9999 FEW016TCU SCT040 BKN080 14/12 Q1025
Conditions at: DAAG (DAR-EL-BEIDA/HOU, DZ) observed 1000 UTC 23 March 2019
Temperature: 14.0°C (57°F)
Dewpoint: 12.0°C (54°F) [RH = 88%]
Pressure (altimeter): 30.27 inches Hg (1025.0 mb)
Winds: variable direction winds at 2 MPH (2 knots; 1.0 m/s)
Visibility: 6 or more miles (10+ km)
Ceiling: 8000 feet AGL
Clouds: few clouds at 1600 feet AGL
scattered clouds at 4000 feet AGL
broken clouds at 8000 feet AGL
Weather: no significant weather observed at this time

METAR text: DAAG 230930Z 27004KT 240V310 9999 FEW016TCU SCT080 14/12 Q1025
Conditions at: DAAG (DAR-EL-BEIDA/HOU, DZ) observed 0930 UTC 23 March 2019
Temperature: 14.0°C (57°F)
Dewpoint: 12.0°C (54°F) [RH = 88%]
Pressure (altimeter): 30.27 inches Hg (1025.0 mb)
Winds: from the W (270 degrees) at 5 MPH (4 knots; 2.1 m/s)
Visibility: 6 or more miles (10+ km)
Ceiling: at least 12,000 feet AGL
Clouds: few clouds at 1600 feet AGL
scattered clouds at 8000 feet AGL
Weather: no significant weather observed at this time

METAR text: DAAG 230900Z 24005KT 9999 FEW016TCU SCT080 13/11 Q1025
Conditions at: DAAG (DAR-EL-BEIDA/HOU, DZ) observed 0900 UTC 23 March 2019
Temperature: 13.0°C (55°F)
Dewpoint: 11.0°C (52°F) [RH = 88%]
Pressure (altimeter): 30.27 inches Hg (1025.0 mb)
Winds: from the WSW (240 degrees) at 6 MPH (5 knots; 2.6 m/s)
Visibility: 6 or more miles (10+ km)
Ceiling: at least 12,000 feet AGL
Clouds: few clouds at 1600 feet AGL
scattered clouds at 8000 feet AGL
Weather: no significant weather observed at this time

METAR text: DAAG 230830Z 22006KT 8000 FEW016 SCT040 13/12 Q1025
Conditions at: DAAG (DAR-EL-BEIDA/HOU, DZ) observed 0830 UTC 23 March 2019
Temperature: 13.0°C (55°F)
Dewpoint: 12.0°C (54°F) [RH = 94%]
Pressure (altimeter): 30.27 inches Hg (1025.0 mb)
Winds: from the SW (220 degrees) at 7 MPH (6 knots; 3.1 m/s)
Visibility: 5 miles ( 8 km)
Ceiling: at least 12,000 feet AGL
Clouds: few clouds at 1600 feet AGL
scattered clouds at 4000 feet AGL
Weather: no significant weather observed at this time

METAR text: DAAG 230800Z 23003KT 190V260 6000 SCT013 SCT040 BKN080 12/11 Q1025
Conditions at: DAAG (DAR-EL-BEIDA/HOU, DZ) observed 0800 UTC 23 March 2019
Temperature: 12.0°C (54°F)
Dewpoint: 11.0°C (52°F) [RH = 94%]
Pressure (altimeter): 30.27 inches Hg (1025.0 mb)
Winds: from the SW (230 degrees) at 3 MPH (3 knots; 1.5 m/s)
Visibility: 4 miles ( 6 km)
Ceiling: 8000 feet AGL
Clouds: scattered clouds at 1300 feet AGL
scattered clouds at 4000 feet AGL
broken clouds at 8000 feet AGL
Weather: no significant weather observed at this time

METAR text: DAAG 230730Z 22004KT 4500 BR SCT013 SCT040 BKN083 11/11 Q1025
Conditions at: DAAG (DAR-EL-BEIDA/HOU, DZ) observed 0730 UTC 23 March 2019
Temperature: 11.0°C (52°F)
Dewpoint: 11.0°C (52°F) [RH = 100%]
Pressure (altimeter): 30.27 inches Hg (1025.0 mb)
Winds: from the SW (220 degrees) at 5 MPH (4 knots; 2.1 m/s)
Visibility: 2.80 miles (4.51 km)
Ceiling: 8300 feet AGL
Clouds: scattered clouds at 1300 feet AGL
scattered clouds at 4000 feet AGL
broken clouds at 8300 feet AGL
Weather: BR  (mist)

METAR text: DAAG 230700Z 24005KT 3500 -DZ BR SCT013 SCT040 BKN083 11/11 Q1024
Conditions at: DAAG (DAR-EL-BEIDA/HOU, DZ) observed 0700 UTC 23 March 2019
Temperature: 11.0°C (52°F)
Dewpoint: 11.0°C (52°F) [RH = 100%]
Pressure (altimeter): 30.24 inches Hg (1024.0 mb)
Winds: from the WSW (240 degrees) at 6 MPH (5 knots; 2.6 m/s)
Visibility: 2.17 miles (3.49 km)
Ceiling: 8300 feet AGL
Clouds: scattered clouds at 1300 feet AGL
scattered clouds at 4000 feet AGL
broken clouds at 8300 feet AGL
Weather: -DZ BR  (light drizzle, mist)

METAR text: DAAG 230630Z 21004KT 190V250 4000 BR FEW020 SCT040 BKN083 11/10 Q1024
Conditions at: DAAG (DAR-EL-BEIDA/HOU, DZ) observed 0630 UTC 23 March 2019
Temperature: 11.0°C (52°F)
Dewpoint: 10.0°C (50°F) [RH = 94%]
Pressure (altimeter): 30.24 inches Hg (1024.0 mb)
Winds: from the SSW (210 degrees) at 5 MPH (4 knots; 2.1 m/s)
Visibility: 2.49 miles (4.01 km)
Ceiling: 8300 feet AGL
Clouds: few clouds at 2000 feet AGL
scattered clouds at 4000 feet AGL
broken clouds at 8300 feet AGL
Weather: BR  (mist)

METAR text: DAAG 230600Z 25003KT 220V290 5000 FEW020 SCT040 BKN083 11/11 Q1024
Conditions at: DAAG (DAR-EL-BEIDA/HOU, DZ) observed 0600 UTC 23 March 2019
Temperature: 11.0°C (52°F)
Dewpoint: 11.0°C (52°F) [RH = 100%]
Pressure (altimeter): 30.24 inches Hg (1024.0 mb)
Winds: from the WSW (250 degrees) at 3 MPH (3 knots; 1.5 m/s)
Visibility: 3 miles ( 5 km)
Ceiling: 8300 feet AGL
Clouds: few clouds at 2000 feet AGL
scattered clouds at 4000 feet AGL
broken clouds at 8300 feet AGL
Weather: no significant weather observed at this time

METAR text: DAAG 230530Z 26003KT 230V300 8000 FEW020 BKN083 11/10 Q1024
Conditions at: DAAG (DAR-EL-BEIDA/HOU, DZ) observed 0530 UTC 23 March 2019
Temperature: 11.0°C (52°F)
Dewpoint: 10.0°C (50°F) [RH = 94%]
Pressure (altimeter): 30.24 inches Hg (1024.0 mb)
Winds: from the W (260 degrees) at 3 MPH (3 knots; 1.5 m/s)
Visibility: 5 miles ( 8 km)
Ceiling: 8300 feet AGL
Clouds: few clouds at 2000 feet AGL
broken clouds at 8300 feet AGL
Weather: no significant weather observed at this time

METAR text: DAAG 230500Z 25004KT 220V280 8000 FEW020 SCT040 BKN083 11/10 Q1024
Conditions at: DAAG (DAR-EL-BEIDA/HOU, DZ) observed 0500 UTC 23 March 2019
Temperature: 11.0°C (52°F)
Dewpoint: 10.0°C (50°F) [RH = 94%]
Pressure (altimeter): 30.24 inches Hg (1024.0 mb)
Winds: from the WSW (250 degrees) at 5 MPH (4 knots; 2.1 m/s)
Visibility: 5 miles ( 8 km)
Ceiling: 8300 feet AGL
Clouds: few clouds at 2000 feet AGL
scattered clouds at 4000 feet AGL
broken clouds at 8300 feet AGL
Weather: no significant weather observed at this time

METAR text: DAAG 230430Z 25003KT 220V290 5000 -RA FEW020 FEW026CB SCT040 BKN083 11/10 Q1024
Conditions at: DAAG (DAR-EL-BEIDA/HOU, DZ) observed 0430 UTC 23 March 2019
Temperature: 11.0°C (52°F)
Dewpoint: 10.0°C (50°F) [RH = 94%]
Pressure (altimeter): 30.24 inches Hg (1024.0 mb)
Winds: from the WSW (250 degrees) at 3 MPH (3 knots; 1.5 m/s)
Visibility: 3 miles ( 5 km)
Ceiling: 8300 feet AGL
Clouds: few clouds at 2000 feet AGL
few clouds at 2600 feet AGL
scattered clouds at 4000 feet AGL
broken clouds at 8300 feet AGL
Weather: -RA  (light rain)

METAR text: DAAG 230400Z 24004KT 6000 -RA FEW020 SCT040 BKN083 11/10 Q1023
Conditions at: DAAG (DAR-EL-BEIDA/HOU, DZ) observed 0400 UTC 23 March 2019
Temperature: 11.0°C (52°F)
Dewpoint: 10.0°C (50°F) [RH = 94%]
Pressure (altimeter): 30.21 inches Hg (1023.0 mb)
Winds: from the WSW (240 degrees) at 5 MPH (4 knots; 2.1 m/s)
Visibility: 4 miles ( 6 km)
Ceiling: 8300 feet AGL
Clouds: few clouds at 2000 feet AGL
scattered clouds at 4000 feet AGL
broken clouds at 8300 feet AGL
Weather: -RA  (light rain)

METAR text: DAAG 230330Z 26004KT 220V290 9999 -RA FEW020 SCT040 BKN080 11/10 Q1023
Conditions at: DAAG (DAR-EL-BEIDA/HOU, DZ) observed 0330 UTC 23 March 2019
Temperature: 11.0°C (52°F)
Dewpoint: 10.0°C (50°F) [RH = 94%]
Pressure (altimeter): 30.21 inches Hg (1023.0 mb)
Winds: from the W (260 degrees) at 5 MPH (4 knots; 2.1 m/s)
Visibility: 6 or more miles (10+ km)
Ceiling: 8000 feet AGL
Clouds: few clouds at 2000 feet AGL
scattered clouds at 4000 feet AGL
broken clouds at 8000 feet AGL
Weather: -RA  (light rain)

METAR text: DAAG 230300Z 26004KT 230V290 9999 FEW020 SCT040 BKN080 10/10 Q1023
Conditions at: DAAG (DAR-EL-BEIDA/HOU, DZ) observed 0300 UTC 23 March 2019
Temperature: 10.0°C (50°F)
Dewpoint: 10.0°C (50°F) [RH = 100%]
Pressure (altimeter): 30.21 inches Hg (1023.0 mb)
Winds: from the W (260 degrees) at 5 MPH (4 knots; 2.1 m/s)
Visibility: 6 or more miles (10+ km)
Ceiling: 8000 feet AGL
Clouds: few clouds at 2000 feet AGL
scattered clouds at 4000 feet AGL
broken clouds at 8000 feet AGL
Weather: no significant weather observed at this time

METAR text: DAAG 230230Z 27003KT 9999 FEW020 SCT040 10/09 Q1023
Conditions at: DAAG (DAR-EL-BEIDA/HOU, DZ) observed 0230 UTC 23 March 2019
Temperature: 10.0°C (50°F)
Dewpoint: 9.0°C (48°F) [RH = 93%]
Pressure (altimeter): 30.21 inches Hg (1023.0 mb)
Winds: from the W (270 degrees) at 3 MPH (3 knots; 1.5 m/s)
Visibility: 6 or more miles (10+ km)
Ceiling: at least 12,000 feet AGL
Clouds: few clouds at 2000 feet AGL
scattered clouds at 4000 feet AGL
Weather: no significant weather observed at this time

METAR text: DAAG 230200Z 25003KT 9999 FEW020 SCT040 09/08 Q1023
Conditions at: DAAG (DAR-EL-BEIDA/HOU, DZ) observed 0200 UTC 23 March 2019
Temperature: 9.0°C (48°F)
Dewpoint: 8.0°C (46°F) [RH = 93%]
Pressure (altimeter): 30.21 inches Hg (1023.0 mb)
Winds: from the WSW (250 degrees) at 3 MPH (3 knots; 1.5 m/s)
Visibility: 6 or more miles (10+ km)
Ceiling: at least 12,000 feet AGL
Clouds: few clouds at 2000 feet AGL
scattered clouds at 4000 feet AGL
Weather: no significant weather observed at this time

METAR text: DAAG 230130Z 25002KT 9000 FEW020 SCT083 09/08 Q1023
Conditions at: DAAG (DAR-EL-BEIDA/HOU, DZ) observed 0130 UTC 23 March 2019
Temperature: 9.0°C (48°F)
Dewpoint: 8.0°C (46°F) [RH = 93%]
Pressure (altimeter): 30.21 inches Hg (1023.0 mb)
Winds: from the WSW (250 degrees) at 2 MPH (2 knots; 1.0 m/s)
Visibility: 6 miles ( 9 km)
Ceiling: at least 12,000 feet AGL
Clouds: few clouds at 2000 feet AGL
scattered clouds at 8300 feet AGL
Weather: no significant weather observed at this time

METAR text: DAAG 230100Z 24002KT 9999 FEW020 09/08 Q1024
Conditions at: DAAG (DAR-EL-BEIDA/HOU, DZ) observed 0100 UTC 23 March 2019
Temperature: 9.0°C (48°F)
Dewpoint: 8.0°C (46°F) [RH = 93%]
Pressure (altimeter): 30.24 inches Hg (1024.0 mb)
Winds: from the WSW (240 degrees) at 2 MPH (2 knots; 1.0 m/s)
Visibility: 6 or more miles (10+ km)
Ceiling: at least 12,000 feet AGL
Clouds: few clouds at 2000 feet AGL
Weather: no significant weather observed at this time

METAR text: DAAG 230030Z 22001KT 7000 FEW020TCU 09/08 Q1024
Conditions at: DAAG (DAR-EL-BEIDA/HOU, DZ) observed 0030 UTC 23 March 2019
Temperature: 9.0°C (48°F)
Dewpoint: 8.0°C (46°F) [RH = 93%]
Pressure (altimeter): 30.24 inches Hg (1024.0 mb)
Winds: from the SW (220 degrees) at 1 MPH (1 knots; 0.5 m/s)
Visibility: 4 miles ( 7 km)
Ceiling: at least 12,000 feet AGL
Clouds: few clouds at 2000 feet AGL
Weather: no significant weather observed at this time

METAR text: DAAG 230000Z 26001KT 8000 FEW020TCU SCT040 10/09 Q1024
Conditions at: DAAG (DAR-EL-BEIDA/HOU, DZ) observed 0000 UTC 23 March 2019
Temperature: 10.0°C (50°F)
Dewpoint: 9.0°C (48°F) [RH = 93%]
Pressure (altimeter): 30.24 inches Hg (1024.0 mb)
Winds: from the W (260 degrees) at 1 MPH (1 knots; 0.5 m/s)
Visibility: 5 miles ( 8 km)
Ceiling: at least 12,000 feet AGL
Clouds: few clouds at 2000 feet AGL
scattered clouds at 4000 feet AGL
Weather: no significant weather observed at this time

METAR text: DAAG 222330Z 00000KT 9999 FEW020TCU SCT040 10/09 Q1024
Conditions at: DAAG (DAR-EL-BEIDA/HOU, DZ) observed 2330 UTC 22 March 2019
Temperature: 10.0°C (50°F)
Dewpoint: 9.0°C (48°F) [RH = 93%]
Pressure (altimeter): 30.24 inches Hg (1024.0 mb)
Winds: calm
Visibility: 6 or more miles (10+ km)
Ceiling: at least 12,000 feet AGL
Clouds: few clouds at 2000 feet AGL
scattered clouds at 4000 feet AGL
Weather: no significant weather observed at this time

METAR text: DAAG 222300Z VRB02KT 9999 FEW020TCU SCT040 10/09 Q1024
Conditions at: DAAG (DAR-EL-BEIDA/HOU, DZ) observed 2300 UTC 22 March 2019
Temperature: 10.0°C (50°F)
Dewpoint: 9.0°C (48°F) [RH = 93%]
Pressure (altimeter): 30.24 inches Hg (1024.0 mb)
Winds: variable direction winds at 2 MPH (2 knots; 1.0 m/s)
Visibility: 6 or more miles (10+ km)
Ceiling: at least 12,000 feet AGL
Clouds: few clouds at 2000 feet AGL
scattered clouds at 4000 feet AGL
Weather: no significant weather observed at this time

METAR text: DAAG 222230Z 25002KT 9999 SCT020TCU SCT040 11/10 Q1024
Conditions at: DAAG (DAR-EL-BEIDA/HOU, DZ) observed 2230 UTC 22 March 2019
Temperature: 11.0°C (52°F)
Dewpoint: 10.0°C (50°F) [RH = 94%]
Pressure (altimeter): 30.24 inches Hg (1024.0 mb)
Winds: from the WSW (250 degrees) at 2 MPH (2 knots; 1.0 m/s)
Visibility: 6 or more miles (10+ km)
Ceiling: at least 12,000 feet AGL
Clouds: scattered clouds at 2000 feet AGL
scattered clouds at 4000 feet AGL
Weather: no significant weather observed at this time

METAR text: DAAG 222200Z 23005KT 9999 SCT020TCU FEW026CB SCT040 11/10 Q1024
Conditions at: DAAG (DAR-EL-BEIDA/HOU, DZ) observed 2200 UTC 22 March 2019
Temperature: 11.0°C (52°F)
Dewpoint: 10.0°C (50°F) [RH = 94%]
Pressure (altimeter): 30.24 inches Hg (1024.0 mb)
Winds: from the SW (230 degrees) at 6 MPH (5 knots; 2.6 m/s)
Visibility: 6 or more miles (10+ km)
Ceiling: at least 12,000 feet AGL
Clouds: scattered clouds at 2000 feet AGL
few clouds at 2600 feet AGL
scattered clouds at 4000 feet AGL
Weather: no significant weather observed at this time

METAR text: DAAG 222130Z VRB02KT 9999 SCT020TCU FEW026CB SCT040 12/11 Q1024
Conditions at: DAAG (DAR-EL-BEIDA/HOU, DZ) observed 2130 UTC 22 March 2019
Temperature: 12.0°C (54°F)
Dewpoint: 11.0°C (52°F) [RH = 94%]
Pressure (altimeter): 30.24 inches Hg (1024.0 mb)
Winds: variable direction winds at 2 MPH (2 knots; 1.0 m/s)
Visibility: 6 or more miles (10+ km)
Ceiling: at least 12,000 feet AGL
Clouds: scattered clouds at 2000 feet AGL
few clouds at 2600 feet AGL
scattered clouds at 4000 feet AGL
Weather: no significant weather observed at this time

METAR text: DAAG 222100Z 23003KT 200V270 9999 SCT020TCU FEW026CB SCT040 12/12 Q1024
Conditions at: DAAG (DAR-EL-BEIDA/HOU, DZ) observed 2100 UTC 22 March 2019
Temperature: 12.0°C (54°F)
Dewpoint: 12.0°C (54°F) [RH = 100%]
Pressure (altimeter): 30.24 inches Hg (1024.0 mb)
Winds: from the SW (230 degrees) at 3 MPH (3 knots; 1.5 m/s)
Visibility: 6 or more miles (10+ km)
Ceiling: at least 12,000 feet AGL
Clouds: scattered clouds at 2000 feet AGL
few clouds at 2600 feet AGL
scattered clouds at 4000 feet AGL
Weather: no significant weather observed at this time

METAR text: DAAG 222030Z 27003KT 9999 SCT020TCU FEW026CB BKN040 12/12 Q1023
Conditions at: DAAG (DAR-EL-BEIDA/HOU, DZ) observed 2030 UTC 22 March 2019
Temperature: 12.0°C (54°F)
Dewpoint: 12.0°C (54°F) [RH = 100%]
Pressure (altimeter): 30.21 inches Hg (1023.0 mb)
Winds: from the W (270 degrees) at 3 MPH (3 knots; 1.5 m/s)
Visibility: 6 or more miles (10+ km)
Ceiling: 4000 feet AGL
Clouds: scattered clouds at 2000 feet AGL
few clouds at 2600 feet AGL
broken clouds at 4000 feet AGL
Weather: no significant weather observed at this time

METAR text: DAAG 222000Z 29003KT 9999 SCT020TCU FEW026CB BKN040 12/11 Q1023
Conditions at: DAAG (DAR-EL-BEIDA/HOU, DZ) observed 2000 UTC 22 March 2019
Temperature: 12.0°C (54°F)
Dewpoint: 11.0°C (52°F) [RH = 94%]
Pressure (altimeter): 30.21 inches Hg (1023.0 mb)
Winds: from the WNW (290 degrees) at 3 MPH (3 knots; 1.5 m/s)
Visibility: 6 or more miles (10+ km)
Ceiling: 4000 feet AGL
Clouds: scattered clouds at 2000 feet AGL
few clouds at 2600 feet AGL
broken clouds at 4000 feet AGL
Weather: no significant weather observed at this time

METAR text: DAAG 221930Z VRB01KT 9999 -RA SCT020TCU FEW026CB SCT040 12/11 Q1022
Conditions at: DAAG (DAR-EL-BEIDA/HOU, DZ) observed 1930 UTC 22 March 2019
Temperature: 12.0°C (54°F)
Dewpoint: 11.0°C (52°F) [RH = 94%]
Pressure (altimeter): 30.18 inches Hg (1022.0 mb)
Winds: variable direction winds at 1 MPH (1 knots; 0.5 m/s)
Visibility: 6 or more miles (10+ km)
Ceiling: at least 12,000 feet AGL
Clouds: scattered clouds at 2000 feet AGL
few clouds at 2600 feet AGL
scattered clouds at 4000 feet AGL
Weather: -RA  (light rain)

METAR text: DAAG 221900Z 35004KT 300V050 9999 SCT020TCU FEW026CB SCT040 12/11 Q1022 RERA
Conditions at: DAAG (DAR-EL-BEIDA/HOU, DZ) observed 1900 UTC 22 March 2019
Temperature: 12.0°C (54°F)
Dewpoint: 11.0°C (52°F) [RH = 94%]
Pressure (altimeter): 30.18 inches Hg (1022.0 mb)
Winds: from the N (350 degrees) at 5 MPH (4 knots; 2.1 m/s)
Visibility: 6 or more miles (10+ km)
Ceiling: at least 12,000 feet AGL
Clouds: scattered clouds at 2000 feet AGL
few clouds at 2600 feet AGL
scattered clouds at 4000 feet AGL
Weather: no significant weather observed at this time

METAR text: DAAG 221830Z 27009KT 6000 -RA SCT020TCU FEW026CB BKN040 13/11 Q1022 RERA
Conditions at: DAAG (DAR-EL-BEIDA/HOU, DZ) observed 1830 UTC 22 March 2019
Temperature: 13.0°C (55°F)
Dewpoint: 11.0°C (52°F) [RH = 88%]
Pressure (altimeter): 30.18 inches Hg (1022.0 mb)
Winds: from the W (270 degrees) at 10 MPH (9 knots; 4.6 m/s)
Visibility: 4 miles ( 6 km)
Ceiling: 4000 feet AGL
Clouds: scattered clouds at 2000 feet AGL
few clouds at 2600 feet AGL
broken clouds at 4000 feet AGL
Weather: -RA  (light rain)

METAR text: DAAG 221800Z 06008KT 8000 -RA SCT020TCU FEW026CB BKN040 14/11 Q1022
Conditions at: DAAG (DAR-EL-BEIDA/HOU, DZ) observed 1800 UTC 22 March 2019
Temperature: 14.0°C (57°F)
Dewpoint: 11.0°C (52°F) [RH = 82%]
Pressure (altimeter): 30.18 inches Hg (1022.0 mb)
Winds: from the ENE (60 degrees) at 9 MPH (8 knots; 4.1 m/s)
Visibility: 5 miles ( 8 km)
Ceiling: 4000 feet AGL
Clouds: scattered clouds at 2000 feet AGL
few clouds at 2600 feet AGL
broken clouds at 4000 feet AGL
Weather: -RA  (light rain)

METAR text: DAAG 221730Z 07006KT 9999 SCT023TCU SCT040 14/12 Q1022
Conditions at: DAAG (DAR-EL-BEIDA/HOU, DZ) observed 1730 UTC 22 March 2019
Temperature: 14.0°C (57°F)
Dewpoint: 12.0°C (54°F) [RH = 88%]
Pressure (altimeter): 30.18 inches Hg (1022.0 mb)
Winds: from the ENE (70 degrees) at 7 MPH (6 knots; 3.1 m/s)
Visibility: 6 or more miles (10+ km)
Ceiling: at least 12,000 feet AGL
Clouds: scattered clouds at 2300 feet AGL
scattered clouds at 4000 feet AGL
Weather: no significant weather observed at this time

METAR text: DAAG 221700Z 07011KT 9999 SCT026TCU SCT040 14/11 Q1022
Conditions at: DAAG (DAR-EL-BEIDA/HOU, DZ) observed 1700 UTC 22 March 2019
Temperature: 14.0°C (57°F)
Dewpoint: 11.0°C (52°F) [RH = 82%]
Pressure (altimeter): 30.18 inches Hg (1022.0 mb)
Winds: from the ENE (70 degrees) at 13 MPH (11 knots; 5.7 m/s)
Visibility: 6 or more miles (10+ km)
Ceiling: at least 12,000 feet AGL
Clouds: scattered clouds at 2600 feet AGL
scattered clouds at 4000 feet AGL
Weather: no significant weather observed at this time

METAR text: DAAG 221630Z 06010KT 9999 SCT026TCU SCT040 15/11 Q1021
Conditions at: DAAG (DAR-EL-BEIDA/HOU, DZ) observed 1630 UTC 22 March 2019
Temperature: 15.0°C (59°F)
Dewpoint: 11.0°C (52°F) [RH = 77%]
Pressure (altimeter): 30.15 inches Hg (1021.0 mb)
Winds: from the ENE (60 degrees) at 12 MPH (10 knots; 5.1 m/s)
Visibility: 6 or more miles (10+ km)
Ceiling: at least 12,000 feet AGL
Clouds: scattered clouds at 2600 feet AGL
scattered clouds at 4000 feet AGL
Weather: no significant weather observed at this time

METAR text: DAAG 221600Z 07011KT 9999 SCT026TCU BKN043 15/11 Q1021
Conditions at: DAAG (DAR-EL-BEIDA/HOU, DZ) observed 1600 UTC 22 March 2019
Temperature: 15.0°C (59°F)
Dewpoint: 11.0°C (52°F) [RH = 77%]
Pressure (altimeter): 30.15 inches Hg (1021.0 mb)
Winds: from the ENE (70 degrees) at 13 MPH (11 knots; 5.7 m/s)
Visibility: 6 or more miles (10+ km)
Ceiling: 4300 feet AGL
Clouds: scattered clouds at 2600 feet AGL
broken clouds at 4300 feet AGL
Weather: no significant weather observed at this time

METAR text: DAAG 221530Z 08011KT 9999 SCT026TCU BKN043 16/12 Q1021
Conditions at: DAAG (DAR-EL-BEIDA/HOU, DZ) observed 1530 UTC 22 March 2019
Temperature: 16.0°C (61°F)
Dewpoint: 12.0°C (54°F) [RH = 77%]
Pressure (altimeter): 30.15 inches Hg (1021.0 mb)
Winds: from the E (80 degrees) at 13 MPH (11 knots; 5.7 m/s)
Visibility: 6 or more miles (10+ km)
Ceiling: 4300 feet AGL
Clouds: scattered clouds at 2600 feet AGL
broken clouds at 4300 feet AGL
Weather: no significant weather observed at this time

METAR text: DAAG 221500Z 06010KT 030V090 9999 SCT026TCU BKN043 16/11 Q1021
Conditions at: DAAG (DAR-EL-BEIDA/HOU, DZ) observed 1500 UTC 22 March 2019
Temperature: 16.0°C (61°F)
Dewpoint: 11.0°C (52°F) [RH = 72%]
Pressure (altimeter): 30.15 inches Hg (1021.0 mb)
Winds: from the ENE (60 degrees) at 12 MPH (10 knots; 5.1 m/s)
Visibility: 6 or more miles (10+ km)
Ceiling: 4300 feet AGL
Clouds: scattered clouds at 2600 feet AGL
broken clouds at 4300 feet AGL
Weather: no significant weather observed at this time

METAR text: DAAG 221430Z 07009KT 030V090 9999 SCT026TCU SCT046 BKN090 16/12 Q1022
Conditions at: DAAG (DAR-EL-BEIDA/HOU, DZ) observed 1430 UTC 22 March 2019
Temperature: 16.0°C (61°F)
Dewpoint: 12.0°C (54°F) [RH = 77%]
Pressure (altimeter): 30.18 inches Hg (1022.0 mb)
Winds: from the ENE (70 degrees) at 10 MPH (9 knots; 4.6 m/s)
Visibility: 6 or more miles (10+ km)
Ceiling: 9000 feet AGL
Clouds: scattered clouds at 2600 feet AGL
scattered clouds at 4600 feet AGL
broken clouds at 9000 feet AGL
Weather: no significant weather observed at this time

METAR text: DAAG 221400Z 06007KT 030V090 9999 SCT026TCU FEW030CB BKN043 14/12 Q1022 RETS
Conditions at: DAAG (DAR-EL-BEIDA/HOU, DZ) observed 1400 UTC 22 March 2019
Temperature: 14.0°C (57°F)
Dewpoint: 12.0°C (54°F) [RH = 88%]
Pressure (altimeter): 30.18 inches Hg (1022.0 mb)
Winds: from the ENE (60 degrees) at 8 MPH (7 knots; 3.6 m/s)
Visibility: 6 or more miles (10+ km)
Ceiling: 4300 feet AGL
Clouds: scattered clouds at 2600 feet AGL
few clouds at 3000 feet AGL
broken clouds at 4300 feet AGL
Weather: no significant weather observed at this time

METAR text: DAAG 221330Z 08009KT 9999 SCT023TCU FEW026CB BKN043 14/12 Q1022 RETS
Conditions at: DAAG (DAR-EL-BEIDA/HOU, DZ) observed 1330 UTC 22 March 2019
Temperature: 14.0°C (57°F)
Dewpoint: 12.0°C (54°F) [RH = 88%]
Pressure (altimeter): 30.18 inches Hg (1022.0 mb)
Winds: from the E (80 degrees) at 10 MPH (9 knots; 4.6 m/s)
Visibility: 6 or more miles (10+ km)
Ceiling: 4300 feet AGL
Clouds: scattered clouds at 2300 feet AGL
few clouds at 2600 feet AGL
broken clouds at 4300 feet AGL
Weather: no significant weather observed at this time

METAR text: DAAG 221300Z 07011KT 8000 -TSRA SCT023TCU FEW026CB BKN040 14/12 Q1022
Conditions at: DAAG (DAR-EL-BEIDA/HOU, DZ) observed 1300 UTC 22 March 2019
Temperature: 14.0°C (57°F)
Dewpoint: 12.0°C (54°F) [RH = 88%]
Pressure (altimeter): 30.18 inches Hg (1022.0 mb)
Winds: from the ENE (70 degrees) at 13 MPH (11 knots; 5.7 m/s)
Visibility: 5 miles ( 8 km)
Ceiling: 4000 feet AGL
Clouds: scattered clouds at 2300 feet AGL
few clouds at 2600 feet AGL
broken clouds at 4000 feet AGL
Weather: -TSRA  (light rain associated with thunderstorm(s))

METAR text: DAAG 221230Z 05005KT 010V070 6000 TS FEW010 SCT023TCU FEW026CB BKN036 14/13 Q1022
Conditions at: DAAG (DAR-EL-BEIDA/HOU, DZ) observed 1230 UTC 22 March 2019
Temperature: 14.0°C (57°F)
Dewpoint: 13.0°C (55°F) [RH = 94%]
Pressure (altimeter): 30.18 inches Hg (1022.0 mb)
Winds: from the NE (50 degrees) at 6 MPH (5 knots; 2.6 m/s)
Visibility: 4 miles ( 6 km)
Ceiling: 3600 feet AGL
Clouds: few clouds at 1000 feet AGL
scattered clouds at 2300 feet AGL
few clouds at 2600 feet AGL
broken clouds at 3600 feet AGL
Weather: TS  (thunderstorm)

METAR text: DAAG 221200Z 04013KT 3000 TSRA FEW011 SCT016TCU FEW026CB BKN036 14/13 Q1022
Conditions at: DAAG (DAR-EL-BEIDA/HOU, DZ) observed 1200 UTC 22 March 2019
Temperature: 14.0°C (57°F)
Dewpoint: 13.0°C (55°F) [RH = 94%]
Pressure (altimeter): 30.18 inches Hg (1022.0 mb)
Winds: from the NE (40 degrees) at 15 MPH (13 knots; 6.7 m/s)
Visibility: 1.86 miles (2.99 km)
Ceiling: 3600 feet AGL
Clouds: few clouds at 1100 feet AGL
scattered clouds at 1600 feet AGL
few clouds at 2600 feet AGL
broken clouds at 3600 feet AGL
Weather: TSRA  (rain associated with thunderstorm(s))

METAR text: DAAG 221130Z 03015KT 8000 FEW016TCU FEW030CB BKN043 16/13 Q1022
Conditions at: DAAG (DAR-EL-BEIDA/HOU, DZ) observed 1130 UTC 22 March 2019
Temperature: 16.0°C (61°F)
Dewpoint: 13.0°C (55°F) [RH = 82%]
Pressure (altimeter): 30.18 inches Hg (1022.0 mb)
Winds: from the NNE (30 degrees) at 17 MPH (15 knots; 7.7 m/s)
Visibility: 5 miles ( 8 km)
Ceiling: 4300 feet AGL
Clouds: few clouds at 1600 feet AGL
few clouds at 3000 feet AGL
broken clouds at 4300 feet AGL
Weather: no significant weather observed at this time

METAR text: DAAG 221100Z 02012KT 8000 SCT015 FEW030CB SCT043 BKN090 15/13 Q1022
Conditions at: DAAG (DAR-EL-BEIDA/HOU, DZ) observed 1100 UTC 22 March 2019
Temperature: 15.0°C (59°F)
Dewpoint: 13.0°C (55°F) [RH = 88%]
Pressure (altimeter): 30.18 inches Hg (1022.0 mb)
Winds: from the NNE (20 degrees) at 14 MPH (12 knots; 6.2 m/s)
Visibility: 5 miles ( 8 km)
Ceiling: 9000 feet AGL
Clouds: scattered clouds at 1500 feet AGL
few clouds at 3000 feet AGL
scattered clouds at 4300 feet AGL
broken clouds at 9000 feet AGL
Weather: no significant weather observed at this time

METAR text: DAAG 221030Z 02012KT 8000 FEW016TCU FEW030CB SCT036 BKN090 15/13 Q1022
Conditions at: DAAG (DAR-EL-BEIDA/HOU, DZ) observed 1030 UTC 22 March 2019
Temperature: 15.0°C (59°F)
Dewpoint: 13.0°C (55°F) [RH = 88%]
Pressure (altimeter): 30.18 inches Hg (1022.0 mb)
Winds: from the NNE (20 degrees) at 14 MPH (12 knots; 6.2 m/s)
Visibility: 5 miles ( 8 km)
Ceiling: 9000 feet AGL
Clouds: few clouds at 1600 feet AGL
few clouds at 3000 feet AGL
scattered clouds at 3600 feet AGL
broken clouds at 9000 feet AGL
Weather: no significant weather observed at this time

Forecast for: DAAG (DAR-EL-BEIDA/HOU, DZ)
Text: TAF DAAG 231700Z 2318/2418 04008KT 9999 FEW020 SCT036 BKN080
Forecast period: 1800 UTC 23 March 2019 to 1800 UTC 24 March 2019
Forecast type: FROM: standard forecast or significant change
Winds: from the NE (40 degrees) at 9 MPH (8 knots; 4.1 m/s)
Visibility: 6 or more miles 10+ km)
Ceiling: 8000 feet AGL
Clouds: few clouds at 2000 feet AGL
scattered clouds at 3600 feet AGL
broken clouds at 8000 feet AGL
Weather: no significant weather forecast for this period
Text: TEMPO 2318/2402 FEW020TCU FEW023CB
Forecast period: 1800 UTC 23 March 2019 to 0200 UTC 24 March 2019
Forecast type: TEMPORARY: The following changes expected for less than half the time period
Visibility: missing
Ceiling: at least 12,000 feet AGL
Clouds: few clouds at 2000 feet AGL
few clouds at 2300 feet AGL
Weather: no significant weather forecast for this period